Time;durP1;ratioP1;P1;durP2;ratioP2;P2;SDS_P1;SDS_P2;PMS_P1;PMS_P2;Temp;Humidity;BMP_temperature;BMP_pressure;BME280_temperature;BME280_humidity;BME280_pressure;Samples;Min_cycle;Max_cycle;Signal;HPM_P1;HPM_P2
2021/04/22 00:02:12;;;;;;;8.50;2.35;;;7.20;56.50;;;;;;3558417;40;20561;-67
2021/04/22 00:04:39;;;;;;;10.00;2.70;;;7.10;56.00;;;;;;3558487;40;20052;-66
2021/04/22 00:07:04;;;;;;;16.48;2.70;;;7.10;56.80;;;;;;3558627;40;20809;-67
2021/04/22 00:09:30;;;;;;;13.93;3.03;;;7.10;56.10;;;;;;3557510;40;20045;-67
2021/04/22 00:11:56;;;;;;;11.63;2.47;;;7.10;57.50;;;;;;3558911;40;20044;-67
2021/04/22 00:14:22;;;;;;;14.27;3.00;;;7.10;57.90;;;;;;3558484;40;20052;-67
2021/04/22 00:16:48;;;;;;;8.05;2.28;;;7.00;57.40;;;;;;3547958;40;20089;-66
2021/04/22 00:19:13;;;;;;;9.45;2.22;;;6.90;57.70;;;;;;3558258;40;20065;-66
2021/04/22 00:21:39;;;;;;;11.13;2.65;;;7.00;57.80;;;;;;3557901;40;20834;-67
2021/04/22 00:24:05;;;;;;;10.02;1.88;;;6.90;57.70;;;;;;3558416;40;20044;-67
2021/04/22 00:26:31;;;;;;;10.18;2.60;;;7.00;57.70;;;;;;3558510;40;20060;-67
2021/04/22 00:28:57;;;;;;;12.13;2.35;;;7.00;57.80;;;;;;3557866;40;20382;-67
2021/04/22 00:31:22;;;;;;;11.77;2.10;;;7.00;58.10;;;;;;3557354;40;20034;-67
2021/04/22 00:33:48;;;;;;;12.13;2.50;;;7.10;59.20;;;;;;3558300;40;20417;-67
2021/04/22 00:36:14;;;;;;;11.85;2.08;;;7.20;58.70;;;;;;3557962;40;20681;-67
2021/04/22 00:38:41;;;;;;;12.30;2.10;;;7.20;59.10;;;;;;3557818;40;20033;-66
2021/04/22 00:41:08;;;;;;;14.98;2.65;;;7.30;59.00;;;;;;3557490;40;20049;-66
2021/04/22 00:43:34;;;;;;;8.35;2.13;;;7.40;59.00;;;;;;3556786;40;20041;-67
2021/04/22 00:46:00;;;;;;;8.73;1.95;;;7.40;58.80;;;;;;3558157;40;20041;-66
2021/04/22 00:48:26;;;;;;;7.72;2.38;;;7.50;58.90;;;;;;3556519;40;20063;-67
2021/04/22 00:51:02;;;;;;;6.72;2.00;;;7.50;58.20;;;;;;3555934;40;20139;-70
2021/04/22 00:53:30;;;;;;;11.13;2.25;;;7.60;58.80;;;;;;3556561;40;20047;-69
2021/04/22 00:55:56;;;;;;;11.20;3.63;;;7.50;58.50;;;;;;3557860;40;20750;-69
2021/04/22 00:58:22;;;;;;;9.15;2.67;;;7.60;59.10;;;;;;3558364;40;20036;-67
2021/04/22 01:01:01;;;;;;;12.75;2.85;;;7.60;57.80;;;;;;3558898;40;20040;-67
2021/04/22 01:03:29;;;;;;;13.95;3.42;;;7.60;58.70;;;;;;3558156;40;20041;-67
2021/04/22 01:05:57;;;;;;;9.43;2.50;;;7.60;58.00;;;;;;3558984;40;20393;-67
2021/04/22 01:08:23;;;;;;;13.95;3.30;;;7.70;58.10;;;;;;3558910;40;20044;-67
2021/04/22 01:10:49;;;;;;;6.45;2.58;;;7.80;58.70;;;;;;3559138;40;20045;-67
2021/04/22 01:13:15;;;;;;;10.48;2.53;;;7.80;57.60;;;;;;3559147;40;20034;-67
2021/04/22 01:15:41;;;;;;;10.80;2.40;;;7.80;58.30;;;;;;3558455;40;20034;-66
2021/04/22 01:18:08;;;;;;;15.07;3.03;;;7.80;57.10;;;;;;3559320;40;20036;-67
2021/04/22 01:20:38;;;;;;;7.15;2.17;;;7.80;57.40;;;;;;3558302;40;20049;-67
2021/04/22 01:23:04;;;;;;;12.65;2.53;;;7.90;57.80;;;;;;3558249;40;20061;-67
2021/04/22 01:25:40;;;;;;;13.55;2.95;;;7.90;57.20;;;;;;3555834;40;20422;-67
2021/04/22 01:28:09;;;;;;;14.02;2.80;;;7.90;57.50;;;;;;3558794;40;20069;-67
2021/04/22 01:30:41;;;;;;;9.77;2.33;;;7.90;56.90;;;;;;3557328;40;20040;-67
2021/04/22 01:33:09;;;;;;;12.02;2.30;;;8.00;56.90;;;;;;3558831;40;20030;-67
2021/04/22 01:35:37;;;;;;;23.92;3.05;;;8.00;56.60;;;;;;3560963;40;20034;-70
2021/04/22 01:38:05;;;;;;;11.68;3.03;;;8.00;56.90;;;;;;3560453;40;20041;-67
2021/04/22 01:40:31;;;;;;;13.65;2.85;;;8.00;56.10;;;;;;3560732;40;20037;-66
2021/04/22 01:42:57;;;;;;;10.68;2.50;;;8.00;56.20;;;;;;3565012;40;20040;-67
2021/04/22 01:45:23;;;;;;;8.65;2.50;;;7.90;56.40;;;;;;3558640;40;20705;-67
2021/04/22 01:47:49;;;;;;;13.38;3.28;;;7.90;56.30;;;;;;3558728;40;20029;-67
2021/04/22 01:50:19;;;;;;;11.02;2.90;;;7.90;56.50;;;;;;3558950;40;20065;-68
2021/04/22 01:52:45;;;;;;;17.15;2.80;;;7.90;56.50;;;;;;3558976;40;20314;-67
2021/04/22 01:55:14;;;;;;;15.63;3.10;;;7.90;57.70;;;;;;3557126;40;20061;-67
2021/04/22 01:57:40;;;;;;;19.20;3.40;;;7.90;57.20;;;;;;3558687;40;20038;-67
2021/04/22 02:00:13;;;;;;;10.95;3.03;;;7.90;57.70;;;;;;3558250;40;20025;-67
2021/04/22 02:02:41;;;;;;;11.93;2.90;;;7.90;57.30;;;;;;3558563;40;20046;-67
2021/04/22 02:05:08;;;;;;;14.18;2.80;;;7.90;57.20;;;;;;3558788;40;20053;-67
2021/04/22 02:07:34;;;;;;;12.25;4.05;;;7.90;56.90;;;;;;3558635;40;20071;-67
2021/04/22 02:09:59;;;;;;;8.63;2.53;;;7.90;57.30;;;;;;3558004;40;20417;-67
2021/04/22 02:12:25;;;;;;;13.57;2.65;;;8.00;57.30;;;;;;3558887;40;20041;-67
2021/04/22 02:14:51;;;;;;;15.65;2.38;;;8.00;56.60;;;;;;3556672;40;20037;-67
2021/04/22 02:17:16;;;;;;;9.55;2.35;;;8.00;57.00;;;;;;3558777;40;20033;-67
2021/04/22 02:19:42;;;;;;;21.90;3.30;;;8.00;56.50;;;;;;3558073;40;20709;-67
2021/04/22 02:22:08;;;;;;;14.93;3.10;;;8.10;57.20;;;;;;3558204;40;20033;-67
2021/04/22 02:24:33;;;;;;;15.52;2.78;;;8.10;57.20;;;;;;3557559;40;20802;-67
2021/04/22 02:26:59;;;;;;;13.82;2.78;;;8.10;56.70;;;;;;3558621;40;20791;-68
2021/04/22 02:29:25;;;;;;;13.00;3.42;;;8.10;56.60;;;;;;3556902;40;20146;-67
2021/04/22 02:31:51;;;;;;;11.45;1.90;;;8.00;56.80;;;;;;3558113;40;20074;-67
2021/04/22 02:34:16;;;;;;;12.43;3.25;;;8.00;57.30;;;;;;3558502;40;20048;-67
2021/04/22 02:36:42;;;;;;;19.48;2.90;;;8.00;57.30;;;;;;3558093;40;20096;-67
2021/04/22 02:39:08;;;;;;;12.25;3.67;;;8.00;57.50;;;;;;3557913;40;20852;-67
2021/04/22 02:41:33;;;;;;;13.60;3.22;;;8.00;57.60;;;;;;3556565;40;20034;-67
2021/04/22 02:43:59;;;;;;;15.50;3.33;;;8.00;57.80;;;;;;3557995;40;20029;-67
2021/04/22 02:46:25;;;;;;;12.80;2.85;;;8.00;58.10;;;;;;3557619;40;20062;-67
2021/04/22 02:48:51;;;;;;;6.50;2.38;;;8.00;58.30;;;;;;3557701;40;20419;-68
2021/04/22 02:51:17;;;;;;;12.55;2.85;;;8.00;58.60;;;;;;3556531;40;20494;-67
2021/04/22 02:53:42;;;;;;;9.63;2.58;;;8.00;59.30;;;;;;3558374;40;20022;-67
2021/04/22 02:56:08;;;;;;;11.43;2.97;;;7.90;58.00;;;;;;3557106;40;20037;-67
2021/04/22 02:58:34;;;;;;;11.65;3.80;;;7.90;58.70;;;;;;3557879;40;20088;-67
2021/04/22 03:00:59;;;;;;;15.30;2.42;;;7.90;58.50;;;;;;3558154;40;20029;-67
2021/04/22 03:03:26;;;;;;;12.52;2.83;;;7.90;58.20;;;;;;3557696;40;20026;-67
2021/04/22 03:05:54;;;;;;;11.65;2.75;;;7.90;58.10;;;;;;3557789;40;20053;-67
2021/04/22 03:08:20;;;;;;;10.98;2.75;;;7.90;58.50;;;;;;3556243;40;20068;-68
2021/04/22 03:10:46;;;;;;;10.63;2.90;;;7.90;58.80;;;;;;3556505;40;20115;-67
2021/04/22 03:13:12;;;;;;;11.82;2.67;;;7.80;58.90;;;;;;3558026;40;20045;-67
2021/04/22 03:15:38;;;;;;;7.88;2.25;;;7.70;59.50;;;;;;3557736;40;20042;-67
2021/04/22 03:18:04;;;;;;;7.95;2.03;;;7.70;59.10;;;;;;3557852;40;20033;-67
2021/04/22 03:20:30;;;;;;;11.40;2.85;;;7.80;59.00;;;;;;3556599;40;20040;-67
2021/04/22 03:22:56;;;;;;;15.05;2.63;;;7.80;58.40;;;;;;3558159;40;20026;-67
2021/04/22 03:25:24;;;;;;;13.90;3.05;;;7.70;58.70;;;;;;3557543;40;20087;-67
2021/04/22 03:27:51;;;;;;;8.98;2.65;;;7.60;58.30;;;;;;3557362;40;20582;-67
2021/04/22 03:30:17;;;;;;;11.02;2.78;;;7.70;59.00;;;;;;3557185;40;20022;-68
2021/04/22 03:32:44;;;;;;;13.82;2.40;;;7.70;59.50;;;;;;3557433;40;20086;-67
2021/04/22 03:35:11;;;;;;;14.20;3.30;;;7.70;59.80;;;;;;3556913;40;20033;-67
2021/04/22 03:37:38;;;;;;;9.13;2.38;;;7.70;59.60;;;;;;3555644;40;20029;-67
2021/04/22 03:40:07;;;;;;;10.68;2.60;;;7.80;59.40;;;;;;3557148;40;20041;-66
2021/04/22 03:42:32;;;;;;;14.80;3.03;;;7.80;59.30;;;;;;3557154;40;20082;-67
2021/04/22 03:44:59;;;;;;;8.95;1.98;;;7.80;59.10;;;;;;3557564;40;20025;-68
2021/04/22 03:47:25;;;;;;;21.60;2.90;;;7.80;59.20;;;;;;3559699;40;20053;-67
2021/04/22 03:49:50;;;;;;;10.27;2.70;;;7.70;59.30;;;;;;3559651;40;20060;-67
2021/04/22 03:52:16;;;;;;;16.98;3.25;;;7.70;58.80;;;;;;3560020;40;20089;-67
2021/04/22 03:54:42;;;;;;;18.40;3.17;;;7.60;59.40;;;;;;3558289;40;20578;-67
2021/04/22 03:57:08;;;;;;;15.85;2.65;;;7.60;60.20;;;;;;3556182;40;20039;-67
2021/04/22 03:59:34;;;;;;;9.75;2.35;;;7.70;60.30;;;;;;3557525;40;20033;-67
2021/04/22 04:02:00;;;;;;;12.55;2.50;;;7.70;60.10;;;;;;3557220;40;20143;-67
2021/04/22 04:04:26;;;;;;;9.63;2.72;;;7.70;60.10;;;;;;3557086;40;20712;-68
2021/04/22 04:06:52;;;;;;;13.73;2.58;;;7.70;59.50;;;;;;3555598;40;20137;-67
2021/04/22 04:09:18;;;;;;;16.30;2.70;;;7.80;59.90;;;;;;3556988;40;20068;-67
2021/04/22 04:11:44;;;;;;;13.52;2.60;;;7.80;59.70;;;;;;3557037;40;20595;-67
2021/04/22 04:14:09;;;;;;;14.05;2.78;;;7.80;59.50;;;;;;3556766;40;20040;-67
2021/04/22 04:16:35;;;;;;;13.85;2.97;;;7.80;59.10;;;;;;3557856;40;20686;-68
2021/04/22 04:19:01;;;;;;;12.63;3.03;;;7.80;59.30;;;;;;3557153;40;20147;-67
2021/04/22 04:21:27;;;;;;;14.57;3.38;;;7.80;59.90;;;;;;3557942;40;20395;-67
2021/04/22 04:23:53;;;;;;;14.13;2.22;;;7.80;60.40;;;;;;3558567;40;20037;-68
2021/04/22 04:26:18;;;;;;;14.25;2.70;;;7.80;60.60;;;;;;3556751;40;20049;-67
2021/04/22 04:28:45;;;;;;;16.83;3.60;;;7.80;60.10;;;;;;3558376;40;20039;-67
2021/04/22 04:31:10;;;;;;;12.73;2.70;;;7.80;60.40;;;;;;3557838;40;20414;-67
2021/04/22 04:33:36;;;;;;;9.13;2.70;;;7.80;60.40;;;;;;3557567;40;20038;-67
2021/04/22 04:36:02;;;;;;;11.18;2.95;;;7.80;60.20;;;;;;3558335;40;20154;-68
2021/04/22 04:38:28;;;;;;;17.90;2.90;;;7.90;59.90;;;;;;3558125;40;20030;-67
2021/04/22 04:40:53;;;;;;;10.88;2.90;;;7.90;60.90;;;;;;3557983;40;20489;-67
2021/04/22 04:43:19;;;;;;;10.95;3.38;;;7.90;59.70;;;;;;3556594;40;20088;-67
2021/04/22 04:45:45;;;;;;;16.10;3.40;;;8.00;60.30;;;;;;3557849;40;20057;-67
2021/04/22 04:48:11;;;;;;;11.20;3.13;;;7.90;59.50;;;;;;3557832;40;20037;-67
2021/04/22 04:50:37;;;;;;;14.27;2.95;;;7.90;59.40;;;;;;3557564;40;20037;-67
2021/04/22 04:53:02;;;;;;;13.55;3.75;;;7.80;59.70;;;;;;3558138;40;20040;-68
2021/04/22 04:55:28;;;;;;;11.98;2.40;;;7.80;59.80;;;;;;3557798;40;20050;-73
2021/04/22 04:57:54;;;;;;;11.30;2.45;;;7.80;60.00;;;;;;3558113;40;20108;-68
2021/04/22 05:00:20;;;;;;;11.38;2.42;;;7.90;60.10;;;;;;3556801;40;20037;-67
2021/04/22 05:02:46;;;;;;;16.92;3.35;;;7.90;60.70;;;;;;3558329;40;20454;-68
2021/04/22 05:05:13;;;;;;;11.32;3.03;;;8.00;60.90;;;;;;3557479;40;20037;-67
2021/04/22 05:07:39;;;;;;;9.75;2.83;;;8.00;58.80;;;;;;3557778;40;20041;-68
2021/04/22 05:10:06;;;;;;;14.00;2.53;;;8.00;59.10;;;;;;3557954;40;20182;-67
2021/04/22 05:12:32;;;;;;;8.98;2.53;;;8.10;59.80;;;;;;3553544;40;20041;-67
2021/04/22 05:14:58;;;;;;;11.95;2.70;;;8.20;60.00;;;;;;3557701;40;20130;-67
2021/04/22 05:17:24;;;;;;;15.63;3.47;;;8.20;58.60;;;;;;3557862;40;20821;-67
2021/04/22 05:19:50;;;;;;;17.98;3.22;;;8.20;59.30;;;;;;3555137;40;20080;-68
2021/04/22 05:22:15;;;;;;;9.98;2.90;;;8.30;58.90;;;;;;3556700;40;20034;-67
2021/04/22 05:24:41;;;;;;;16.48;2.55;;;8.30;59.30;;;;;;3558495;40;20033;-67
2021/04/22 05:27:07;;;;;;;17.38;2.65;;;8.50;59.30;;;;;;3556378;40;20284;-67
2021/04/22 05:29:34;;;;;;;11.73;2.10;;;8.50;58.40;;;;;;3558016;40;20030;-67
2021/04/22 05:32:00;;;;;;;20.00;5.72;;;8.50;58.30;;;;;;3557764;40;20138;-67
2021/04/22 05:34:26;;;;;;;13.20;2.90;;;8.60;58.20;;;;;;3557532;40;20029;-69
2021/04/22 05:36:51;;;;;;;15.98;3.25;;;8.50;58.00;;;;;;3555750;40;20033;-67
2021/04/22 05:39:22;;;;;;;15.60;2.70;;;8.50;58.40;;;;;;3557494;40;20720;-68
2021/04/22 05:41:51;;;;;;;14.15;2.83;;;8.60;58.00;;;;;;3557370;40;20071;-68
2021/04/22 05:44:17;;;;;;;11.43;2.22;;;8.60;58.00;;;;;;3557078;40;20041;-68
2021/04/22 05:46:44;;;;;;;11.07;2.58;;;8.70;58.40;;;;;;3558970;40;20111;-68
2021/04/22 05:49:10;;;;;;;16.77;3.55;;;8.80;57.40;;;;;;3557803;40;20098;-68
2021/04/22 05:51:38;;;;;;;12.32;2.47;;;8.90;57.20;;;;;;3556926;40;20041;-67
2021/04/22 05:54:07;;;;;;;10.60;2.15;;;8.90;57.10;;;;;;3558857;40;20671;-69
2021/04/22 05:56:33;;;;;;;12.20;3.10;;;8.90;57.10;;;;;;3557344;40;20037;-68
2021/04/22 05:58:59;;;;;;;15.70;3.33;;;9.00;57.20;;;;;;3558918;40;20040;-68
2021/04/22 06:01:25;;;;;;;14.52;2.92;;;9.10;56.90;;;;;;3559409;40;20033;-68
2021/04/22 06:03:50;;;;;;;14.00;3.47;;;9.00;55.90;;;;;;3559579;40;20029;-68
2021/04/22 06:06:16;;;;;;;15.32;3.85;;;8.90;56.20;;;;;;3559844;40;20147;-71
2021/04/22 06:08:42;;;;;;;15.70;2.70;;;9.00;56.60;;;;;;3559602;40;20052;-68
2021/04/22 06:11:08;;;;;;;10.93;2.83;;;9.00;57.30;;;;;;3559007;40;20073;-69
2021/04/22 06:13:33;;;;;;;13.80;2.85;;;9.10;56.90;;;;;;3558985;40;20053;-69
2021/04/22 06:15:59;;;;;;;13.60;2.78;;;9.20;56.80;;;;;;3556320;40;20034;-69
2021/04/22 06:18:25;;;;;;;10.77;2.72;;;9.30;56.00;;;;;;3558414;40;20037;-68
2021/04/22 06:20:51;;;;;;;12.57;2.55;;;9.40;56.00;;;;;;3558247;40;20036;-68
2021/04/22 06:23:16;;;;;;;12.35;3.08;;;9.60;56.50;;;;;;3558212;40;20036;-69
2021/04/22 06:25:43;;;;;;;16.25;2.75;;;9.60;55.20;;;;;;3558436;40;20041;-69
2021/04/22 06:28:09;;;;;;;16.13;2.45;;;9.50;55.50;;;;;;3558324;40;20053;-69
2021/04/22 06:30:35;;;;;;;13.52;2.92;;;9.60;55.50;;;;;;3558296;40;20144;-69
2021/04/22 06:33:01;;;;;;;14.52;3.20;;;9.60;54.90;;;;;;3557220;40;20086;-69
2021/04/22 06:35:27;;;;;;;11.07;2.40;;;9.70;55.60;;;;;;3556890;40;20127;-69
2021/04/22 06:37:53;;;;;;;11.27;2.45;;;9.70;54.60;;;;;;3558026;40;20056;-68
2021/04/22 06:40:21;;;;;;;14.88;3.78;;;9.70;55.10;;;;;;3557839;40;20711;-68
2021/04/22 06:42:47;;;;;;;14.07;3.55;;;9.80;55.60;;;;;;3558095;40;20037;-69
2021/04/22 06:45:14;;;;;;;13.50;2.70;;;9.90;54.70;;;;;;3558125;40;20139;-69
2021/04/22 06:47:41;;;;;;;15.60;2.85;;;10.00;55.20;;;;;;3558012;40;20022;-69
2021/04/22 06:50:10;;;;;;;15.30;2.88;;;10.10;54.50;;;;;;3555487;40;20036;-69
2021/04/22 06:52:36;;;;;;;14.45;2.42;;;10.20;53.80;;;;;;3558673;40;20635;-69
2021/04/22 06:55:07;;;;;;;14.98;2.72;;;10.30;53.60;;;;;;3558117;40;20147;-69
2021/04/22 06:57:32;;;;;;;9.68;2.53;;;10.40;54.10;;;;;;3556954;40;20041;-69
2021/04/22 06:59:58;;;;;;;12.02;2.70;;;10.50;53.20;;;;;;3556792;40;20119;-71
2021/04/22 07:02:24;;;;;;;11.15;2.20;;;10.60;53.60;;;;;;3547850;40;20418;-70
2021/04/22 07:04:50;;;;;;;18.35;4.82;;;10.60;52.70;;;;;;3558693;40;20793;-70
2021/04/22 07:07:16;;;;;;;12.80;2.80;;;10.60;52.60;;;;;;3558035;40;20135;-67
2021/04/22 07:09:41;;;;;;;9.43;2.40;;;10.60;52.00;;;;;;3557955;40;20335;-68
2021/04/22 07:12:08;;;;;;;10.55;2.28;;;10.50;52.90;;;;;;3557546;40;20395;-67
2021/04/22 07:14:33;;;;;;;8.98;2.40;;;10.50;53.80;;;;;;3557633;40;20032;-67
2021/04/22 07:17:02;;;;;;;13.60;2.70;;;10.70;53.10;;;;;;3557266;40;20034;-67
2021/04/22 07:19:28;;;;;;;8.50;2.28;;;10.70;52.40;;;;;;3557729;40;20037;-66
2021/04/22 07:21:54;;;;;;;13.02;2.83;;;10.70;52.40;;;;;;3553613;40;20641;-67
2021/04/22 07:24:20;;;;;;;11.10;2.35;;;10.80;53.10;;;;;;3556149;40;20045;-67
2021/04/22 07:26:46;;;;;;;14.30;3.10;;;10.80;51.50;;;;;;3557574;40;20025;-67
2021/04/22 07:29:12;;;;;;;12.15;3.08;;;10.70;52.60;;;;;;3557382;40;20182;-67
2021/04/22 07:31:37;;;;;;;9.65;2.70;;;10.60;52.80;;;;;;3557045;40;20026;-67
2021/04/22 07:34:04;;;;;;;18.88;2.90;;;10.60;52.80;;;;;;3547731;40;20249;-65
2021/04/22 07:36:29;;;;;;;11.73;2.85;;;10.60;53.40;;;;;;3557608;40;20037;-65
2021/04/22 07:38:56;;;;;;;10.85;2.72;;;10.60;53.50;;;;;;3557252;40;20034;-63
2021/04/22 07:41:21;;;;;;;7.75;2.50;;;10.60;53.10;;;;;;3557260;40;20617;-64
2021/04/22 07:43:47;;;;;;;9.43;2.15;;;10.70;53.30;;;;;;3557959;40;20066;-67
2021/04/22 07:46:13;;;;;;;12.07;3.10;;;10.80;53.10;;;;;;3557151;40;20581;-67
2021/04/22 07:48:39;;;;;;;12.55;3.33;;;11.00;53.50;;;;;;3558082;40;20041;-71
2021/04/22 07:51:05;;;;;;;13.00;3.00;;;11.00;53.60;;;;;;3557227;40;20040;-68
2021/04/22 07:53:33;;;;;;;18.00;3.28;;;11.10;51.90;;;;;;3557271;40;20045;-67
2021/04/22 07:55:59;;;;;;;21.52;5.20;;;11.20;51.80;;;;;;3557985;40;20021;-67
2021/04/22 07:58:25;;;;;;;13.00;2.60;;;11.20;52.00;;;;;;3557207;40;20037;-67
2021/04/22 08:00:52;;;;;;;12.50;3.63;;;11.20;51.50;;;;;;3557757;40;20084;-67
2021/04/22 08:03:18;;;;;;;11.90;2.63;;;11.20;51.90;;;;;;3558097;40;20088;-68
2021/04/22 08:05:46;;;;;;;15.68;2.22;;;11.30;51.20;;;;;;3554870;40;20113;-67
2021/04/22 08:08:13;;;;;;;9.75;2.45;;;11.40;52.00;;;;;;3556209;40;20061;-67
2021/04/22 08:10:45;;;;;;;11.68;3.60;;;11.50;51.40;;;;;;3556980;40;20038;-67
2021/04/22 08:13:13;;;;;;;13.68;2.40;;;11.60;51.70;;;;;;3558534;40;20119;-67
2021/04/22 08:15:40;;;;;;;11.30;2.63;;;11.70;52.20;;;;;;3558842;40;20065;-67
2021/04/22 08:18:07;;;;;;;10.80;2.78;;;11.70;51.10;;;;;;3558960;40;20033;-66
2021/04/22 08:20:33;;;;;;;13.25;3.30;;;11.80;50.90;;;;;;3558200;40;20033;-66
2021/04/22 08:23:02;;;;;;;9.30;2.38;;;12.00;50.60;;;;;;3557088;40;20497;-67
2021/04/22 08:25:37;;;;;;;12.40;2.15;;;12.00;50.40;;;;;;3556111;40;20029;-67
2021/04/22 08:28:06;;;;;;;11.85;2.17;;;12.10;49.30;;;;;;3557333;40;20029;-67
2021/04/22 08:30:36;;;;;;;16.13;2.92;;;12.00;49.50;;;;;;3556816;40;20033;-67
2021/04/22 08:33:03;;;;;;;22.30;6.30;;;11.80;49.00;;;;;;3557258;40;20028;-67
2021/04/22 08:35:30;;;;;;;8.35;3.15;;;11.80;49.90;;;;;;3547409;40;20040;-67
2021/04/22 08:37:56;;;;;;;12.50;2.70;;;11.80;49.70;;;;;;3556012;40;20138;-67
2021/04/22 08:40:23;;;;;;;9.63;2.67;;;11.90;49.60;;;;;;3555540;40;20029;-67
2021/04/22 08:42:50;;;;;;;7.50;2.35;;;12.10;49.60;;;;;;3555856;40;20042;-68
2021/04/22 08:45:16;;;;;;;12.05;2.85;;;12.30;49.80;;;;;;3557639;40;20044;-68
2021/04/22 08:47:44;;;;;;;9.98;2.33;;;12.70;48.70;;;;;;3556129;40;20073;-69
2021/04/22 08:50:17;;;;;;;11.75;2.88;;;13.30;47.00;;;;;;3557580;40;20033;-68
2021/04/22 08:52:43;;;;;;;8.25;2.72;;;13.50;46.80;;;;;;3556040;40;20049;-68
2021/04/22 08:55:10;;;;;;;6.88;2.63;;;13.40;46.80;;;;;;3556913;40;20060;-69
2021/04/22 08:57:36;;;;;;;15.63;2.67;;;13.40;46.80;;;;;;3556536;40;20038;-69
2021/04/22 09:00:05;;;;;;;7.05;2.65;;;13.90;45.40;;;;;;3556849;40;20034;-68
2021/04/22 09:02:31;;;;;;;8.50;2.08;;;14.50;45.50;;;;;;3557104;40;20676;-68
2021/04/22 09:04:57;;;;;;;8.80;2.33;;;15.10;44.00;;;;;;3556291;40;20034;-69
2021/04/22 09:07:23;;;;;;;8.98;2.70;;;15.50;42.40;;;;;;3558032;40;20029;-69
2021/04/22 09:09:48;;;;;;;10.40;2.92;;;15.50;41.00;;;;;;3557799;40;20037;-68
2021/04/22 09:12:19;;;;;;;8.52;2.90;;;15.70;42.30;;;;;;3557470;40;20092;-69
2021/04/22 09:15:00;;;;;;;8.75;2.17;;;15.90;41.30;;;;;;3556717;40;20053;-69
2021/04/22 09:17:28;;;;;;;10.05;2.50;;;16.40;40.90;;;;;;3564803;40;20085;-69
2021/04/22 09:19:55;;;;;;;9.02;3.00;;;16.50;40.20;;;;;;3557576;40;20026;-69
2021/04/22 09:22:36;;;;;;;11.85;2.50;;;16.20;40.80;;;;;;3558892;40;20047;-70
2021/04/22 09:25:19;;;;;;;8.15;2.78;;;16.40;39.80;;;;;;3557852;40;20034;-69
2021/04/22 09:27:45;;;;;;;6.93;2.10;;;16.10;40.70;;;;;;3559097;40;20138;-68
2021/04/22 09:30:15;;;;;;;6.85;2.67;;;15.80;40.50;;;;;;3558770;40;20677;-68
2021/04/22 09:32:41;;;;;;;10.00;2.10;;;15.50;41.90;;;;;;3556457;40;20037;-67
2021/04/22 09:35:15;;;;;;;7.40;2.00;;;15.60;41.40;;;;;;3558785;40;20045;-69
2021/04/22 09:37:50;;;;;;;9.52;2.20;;;15.80;40.70;;;;;;3558101;40;20791;-68
2021/04/22 09:40:17;;;;;;;7.03;2.08;;;16.10;40.10;;;;;;3553437;40;20068;-68
2021/04/22 09:42:43;;;;;;;6.63;1.60;;;16.30;38.20;;;;;;3558454;40;20033;-68
2021/04/22 09:45:11;;;;;;;8.48;2.20;;;16.10;38.90;;;;;;3556306;40;20062;-67
2021/04/22 09:47:37;;;;;;;4.10;1.67;;;15.90;38.30;;;;;;3558260;40;20073;-67
2021/04/22 09:50:09;;;;;;;9.23;1.77;;;15.60;40.00;;;;;;3557493;40;20061;-67
2021/04/22 09:52:39;;;;;;;10.65;2.45;;;15.30;41.50;;;;;;3557118;40;20045;-68
2021/04/22 09:55:08;;;;;;;6.70;1.95;;;15.00;41.30;;;;;;3557024;40;20544;-67
2021/04/22 09:57:35;;;;;;;5.22;1.65;;;14.70;42.00;;;;;;3558932;40;20041;-68
2021/04/22 10:00:05;;;;;;;8.57;1.90;;;14.50;42.70;;;;;;3558385;40;20116;-67
2021/04/22 10:02:55;;;;;;;5.65;1.80;;;14.30;42.50;;;;;;3559294;40;20331;-67
2021/04/22 10:05:31;;;;;;;6.18;2.10;;;14.20;43.50;;;;;;3558764;40;20935;-67
2021/04/22 10:08:11;;;;;;;9.40;1.73;;;15.30;42.40;;;;;;3557963;40;20056;-67
2021/04/22 10:10:39;;;;;;;7.47;2.17;;;16.30;40.20;;;;;;3557898;40;20410;-67
2021/04/22 10:13:10;;;;;;;10.88;2.10;;;17.30;37.80;;;;;;3558779;40;20026;-67
2021/04/22 10:15:36;;;;;;;8.73;1.80;;;18.30;36.80;;;;;;3557709;40;20041;-67
2021/04/22 10:18:08;;;;;;;5.47;1.75;;;18.30;37.00;;;;;;3558613;40;20078;-67
2021/04/22 10:20:36;;;;;;;7.25;1.95;;;18.50;35.30;;;;;;3556723;40;20048;-67
2021/04/22 10:23:04;;;;;;;8.93;1.88;;;18.20;36.90;;;;;;3558009;40;20030;-67
2021/04/22 10:25:34;;;;;;;8.63;2.15;;;18.00;36.10;;;;;;3559504;40;20395;-67
2021/04/22 10:28:11;;;;;;;7.72;1.90;;;17.40;37.00;;;;;;3560660;40;20569;-67
2021/04/22 10:30:40;;;;;;;9.38;1.75;;;16.80;38.40;;;;;;3557611;40;20421;-67
2021/04/22 10:33:07;;;;;;;7.18;1.67;;;16.30;38.70;;;;;;3558174;40;20044;-67
2021/04/22 10:35:35;;;;;;;7.90;1.70;;;15.90;39.70;;;;;;3558243;40;20026;-68
2021/04/22 10:38:03;;;;;;;7.15;1.85;;;15.70;39.60;;;;;;3558299;40;20551;-67
2021/04/22 10:40:31;;;;;;;9.20;1.88;;;15.50;38.40;;;;;;3557750;40;20033;-68
2021/04/22 10:42:59;;;;;;;7.45;1.70;;;15.40;39.20;;;;;;3558383;40;20041;-67
2021/04/22 10:45:26;;;;;;;5.53;1.55;;;15.30;38.50;;;;;;3557099;40;20042;-68
2021/04/22 10:47:52;;;;;;;6.15;2.10;;;15.20;38.30;;;;;;3558197;40;20037;-69
2021/04/22 10:50:30;;;;;;;8.85;1.63;;;15.20;40.40;;;;;;3557518;40;20037;-69
2021/04/22 10:52:57;;;;;;;11.63;2.72;;;15.20;40.10;;;;;;3556834;40;20085;-68
2021/04/22 10:55:26;;;;;;;10.82;1.92;;;15.20;41.30;;;;;;3558593;40;20030;-67
2021/04/22 10:57:54;;;;;;;7.30;1.88;;;15.30;41.40;;;;;;3557948;40;20056;-67
2021/04/22 11:00:23;;;;;;;4.97;1.45;;;16.00;40.90;;;;;;3558191;40;20072;-67
2021/04/22 11:02:52;;;;;;;4.38;1.60;;;16.70;38.20;;;;;;3557852;40;20029;-67
2021/04/22 11:05:29;;;;;;;6.05;1.48;;;17.10;36.70;;;;;;3556808;40;20049;-66
2021/04/22 11:08:08;;;;;;;9.57;2.20;;;16.90;36.50;;;;;;3557183;40;20033;-67
2021/04/22 11:10:45;;;;;;;6.90;2.20;;;16.40;38.00;;;;;;3556852;40;20415;-67
2021/04/22 11:13:13;;;;;;;13.45;2.90;;;16.10;39.50;;;;;;3557520;40;20030;-68
2021/04/22 11:15:40;;;;;;;7.55;2.72;;;15.80;41.40;;;;;;3557367;40;20703;-68
2021/04/22 11:18:11;;;;;;;6.13;1.95;;;15.30;41.70;;;;;;3558173;40;20069;-69
2021/04/22 11:20:42;;;;;;;8.32;2.35;;;15.00;41.60;;;;;;3555736;40;20037;-69
2021/04/22 11:23:38;;;;;;;4.85;1.67;;;14.80;41.80;;;;;;3558533;40;20399;-67
2021/04/22 11:26:03;;;;;;;5.47;1.85;;;14.80;41.50;;;;;;3555452;40;20057;-67
2021/04/22 11:28:32;;;;;;;6.00;1.40;;;14.90;41.70;;;;;;3557212;40;20042;-68
2021/04/22 11:31:19;;;;;;;6.43;1.52;;;15.00;41.80;;;;;;3556882;40;20577;-68
2021/04/22 11:33:45;;;;;;;8.18;2.00;;;15.30;42.30;;;;;;3556315;40;20029;-68
2021/04/22 11:36:13;;;;;;;10.73;1.58;;;15.40;43.60;;;;;;3557506;40;20652;-67
2021/04/22 11:38:57;;;;;;;8.13;1.95;;;15.70;42.40;;;;;;3556096;40;20033;-66
2021/04/22 11:41:26;;;;;;;6.55;1.55;;;15.90;40.60;;;;;;3557072;40;20081;-67
2021/04/22 11:44:11;;;;;;;6.68;1.98;;;16.00;39.20;;;;;;3556646;40;20049;-68
2021/04/22 11:46:39;;;;;;;10.73;1.80;;;15.90;39.70;;;;;;3557319;40;20915;-67
2021/04/22 11:49:05;;;;;;;11.35;2.10;;;15.70;39.70;;;;;;3557182;40;20728;-69
2021/04/22 11:51:42;;;;;;;7.43;1.83;;;15.50;41.00;;;;;;3557835;40;20104;-67
2021/04/22 11:54:18;;;;;;;;;;;15.40;41.20;;;;;;3557183;40;20040;-67
2021/04/22 11:56:47;;;;;;;7.80;1.33;;;15.20;40.80;;;;;;3556454;40;19956;-67
2021/04/22 11:59:17;;;;;;;6.55;1.80;;;15.10;40.70;;;;;;3557766;40;20556;-67
2021/04/22 12:02:00;;;;;;;7.95;2.08;;;15.00;40.10;;;;;;3556018;40;20477;-69
2021/04/22 12:04:44;;;;;;;4.68;1.95;;;14.90;41.80;;;;;;3564109;40;20041;-68
2021/04/22 12:07:16;;;;;;;5.60;1.77;;;14.70;40.80;;;;;;3557487;40;20037;-68
2021/04/22 12:09:45;;;;;;;9.38;1.85;;;14.60;42.30;;;;;;3556571;40;20041;-68
2021/04/22 12:12:13;;;;;;;4.22;1.67;;;14.40;42.20;;;;;;3557520;40;20029;-68
2021/04/22 12:14:39;;;;;;;6.35;2.25;;;14.50;42.00;;;;;;3557940;40;20061;-69
2021/04/22 12:17:04;;;;;;;8.63;2.70;;;14.50;41.60;;;;;;3557765;40;20143;-69
2021/04/22 12:19:31;;;;;;;8.77;2.28;;;14.40;42.30;;;;;;3557284;40;20034;-67
2021/04/22 12:22:02;;;;;;;7.15;2.08;;;14.40;41.80;;;;;;3555778;40;20083;-67
2021/04/22 12:24:30;;;;;;;7.10;2.20;;;14.10;42.60;;;;;;3557041;40;20033;-67
2021/04/22 12:26:56;;;;;;;8.15;1.80;;;13.90;43.20;;;;;;3555854;40;20025;-76
2021/04/22 12:29:22;;;;;;;7.50;2.20;;;13.70;45.30;;;;;;3557357;40;20067;-69
2021/04/22 12:31:57;;;;;;;7.03;2.03;;;13.70;46.40;;;;;;3556645;40;20034;-68
2021/04/22 12:34:25;;;;;;;7.10;2.53;;;13.90;45.90;;;;;;3557563;40;20089;-68
2021/04/22 12:37:10;;;;;;;5.68;2.20;;;14.10;45.70;;;;;;3558242;40;20033;-72
2021/04/22 12:39:40;;;;;;;9.10;2.33;;;14.20;44.10;;;;;;3558920;40;20482;-71
2021/04/22 12:42:05;;;;;;;11.82;2.00;;;14.20;43.30;;;;;;3559508;40;20509;-71
2021/04/22 12:44:31;;;;;;;10.60;2.30;;;14.20;41.00;;;;;;3558045;40;20037;-70
2021/04/22 12:47:02;;;;;;;11.93;2.20;;;14.00;41.70;;;;;;3557237;40;20033;-69
2021/04/22 12:49:28;;;;;;;9.95;2.22;;;13.70;42.60;;;;;;3555660;40;20057;-71